sensor_id;sensor_type;location;lat;lon;timestamp;P1;durP1;ratioP1;P2;durP2;ratioP2
24799;SDS011;12897;50.812;4.430;2023-06-10T00:02:23;11.90;;;7.00;;
24799;SDS011;12897;50.812;4.430;2023-06-10T00:04:52;11.38;;;7.58;;
24799;SDS011;12897;50.812;4.430;2023-06-10T00:07:21;13.65;;;7.62;;
24799;SDS011;12897;50.812;4.430;2023-06-10T00:09:48;15.38;;;7.60;;
24799;SDS011;12897;50.812;4.430;2023-06-10T00:12:17;13.25;;;7.47;;
24799;SDS011;12897;50.812;4.430;2023-06-10T00:17:14;13.80;;;7.70;;
24799;SDS011;12897;50.812;4.430;2023-06-10T00:19:46;9.75;;;6.95;;
24799;SDS011;12897;50.812;4.430;2023-06-10T00:22:22;11.43;;;7.25;;
24799;SDS011;12897;50.812;4.430;2023-06-10T00:24:53;13.08;;;7.60;;
24799;SDS011;12897;50.812;4.430;2023-06-10T00:27:22;15.28;;;7.83;;
24799;SDS011;12897;50.812;4.430;2023-06-10T00:32:17;11.78;;;7.12;;
24799;SDS011;12897;50.812;4.430;2023-06-10T00:34:45;11.48;;;7.83;;
24799;SDS011;12897;50.812;4.430;2023-06-10T00:37:14;17.95;;;7.67;;
24799;SDS011;12897;50.812;4.430;2023-06-10T00:39:42;12.82;;;7.85;;
24799;SDS011;12897;50.812;4.430;2023-06-10T00:42:09;12.85;;;8.23;;
24799;SDS011;12897;50.812;4.430;2023-06-10T00:44:37;14.60;;;7.62;;
24799;SDS011;12897;50.812;4.430;2023-06-10T00:47:06;14.53;;;7.62;;
24799;SDS011;12897;50.812;4.430;2023-06-10T00:49:33;12.20;;;7.75;;
24799;SDS011;12897;50.812;4.430;2023-06-10T00:52:02;12.65;;;7.87;;
24799;SDS011;12897;50.812;4.430;2023-06-10T00:56:59;8.63;;;7.33;;
24799;SDS011;12897;50.812;4.430;2023-06-10T00:59:33;10.13;;;7.83;;
24799;SDS011;12897;50.812;4.430;2023-06-10T01:01:57;11.90;;;8.33;;
24799;SDS011;12897;50.812;4.430;2023-06-10T01:04:26;11.53;;;8.00;;
24799;SDS011;12897;50.812;4.430;2023-06-10T01:09:33;12.58;;;7.62;;
24799;SDS011;12897;50.812;4.430;2023-06-10T01:12:10;10.65;;;7.65;;
24799;SDS011;12897;50.812;4.430;2023-06-10T01:14:48;9.33;;;7.62;;
24799;SDS011;12897;50.812;4.430;2023-06-10T01:17:16;11.68;;;7.70;;
24799;SDS011;12897;50.812;4.430;2023-06-10T01:19:52;9.28;;;7.70;;
24799;SDS011;12897;50.812;4.430;2023-06-10T01:22:22;16.30;;;8.20;;
24799;SDS011;12897;50.812;4.430;2023-06-10T01:24:58;13.40;;;8.23;;
24799;SDS011;12897;50.812;4.430;2023-06-10T01:27:30;9.65;;;8.40;;
24799;SDS011;12897;50.812;4.430;2023-06-10T01:30:05;13.83;;;8.75;;
24799;SDS011;12897;50.812;4.430;2023-06-10T01:32:39;15.50;;;8.03;;
24799;SDS011;12897;50.812;4.430;2023-06-10T01:35:11;12.03;;;7.95;;
24799;SDS011;12897;50.812;4.430;2023-06-10T01:37:48;9.10;;;7.87;;
24799;SDS011;12897;50.812;4.430;2023-06-10T01:40:25;17.13;;;8.63;;
24799;SDS011;12897;50.812;4.430;2023-06-10T01:43:00;11.55;;;8.38;;
24799;SDS011;12897;50.812;4.430;2023-06-10T01:47:59;11.53;;;8.33;;
24799;SDS011;12897;50.812;4.430;2023-06-10T01:50:27;15.05;;;8.83;;
24799;SDS011;12897;50.812;4.430;2023-06-10T01:52:56;12.37;;;8.68;;
24799;SDS011;12897;50.812;4.430;2023-06-10T01:55:26;11.73;;;7.95;;
24799;SDS011;12897;50.812;4.430;2023-06-10T01:57:55;16.17;;;8.45;;
24799;SDS011;12897;50.812;4.430;2023-06-10T02:00:22;12.60;;;9.05;;
24799;SDS011;12897;50.812;4.430;2023-06-10T02:02:50;14.50;;;9.58;;
24799;SDS011;12897;50.812;4.430;2023-06-10T02:05:17;14.47;;;9.28;;
24799;SDS011;12897;50.812;4.430;2023-06-10T02:07:45;12.35;;;9.18;;
24799;SDS011;12897;50.812;4.430;2023-06-10T02:10:13;14.55;;;8.80;;
24799;SDS011;12897;50.812;4.430;2023-06-10T02:12:40;10.88;;;9.23;;
24799;SDS011;12897;50.812;4.430;2023-06-10T02:15:08;17.00;;;9.10;;
24799;SDS011;12897;50.812;4.430;2023-06-10T02:17:35;19.27;;;9.15;;
24799;SDS011;12897;50.812;4.430;2023-06-10T02:20:05;13.95;;;9.30;;
24799;SDS011;12897;50.812;4.430;2023-06-10T02:22:34;14.95;;;9.65;;
24799;SDS011;12897;50.812;4.430;2023-06-10T02:25:02;13.60;;;9.33;;
24799;SDS011;12897;50.812;4.430;2023-06-10T02:27:30;15.23;;;9.40;;
24799;SDS011;12897;50.812;4.430;2023-06-10T02:29:57;15.03;;;9.43;;
24799;SDS011;12897;50.812;4.430;2023-06-10T02:32:25;13.78;;;9.55;;
24799;SDS011;12897;50.812;4.430;2023-06-10T02:35:03;21.10;;;9.50;;
24799;SDS011;12897;50.812;4.430;2023-06-10T02:37:33;13.48;;;9.10;;
24799;SDS011;12897;50.812;4.430;2023-06-10T02:40:00;24.52;;;10.32;;
24799;SDS011;12897;50.812;4.430;2023-06-10T02:42:30;11.28;;;8.80;;
24799;SDS011;12897;50.812;4.430;2023-06-10T02:44:57;12.13;;;8.88;;
24799;SDS011;12897;50.812;4.430;2023-06-10T02:47:26;13.77;;;10.10;;
24799;SDS011;12897;50.812;4.430;2023-06-10T02:49:54;18.40;;;9.90;;
24799;SDS011;12897;50.812;4.430;2023-06-10T02:52:22;12.18;;;9.80;;
24799;SDS011;12897;50.812;4.430;2023-06-10T02:54:49;12.93;;;9.83;;
24799;SDS011;12897;50.812;4.430;2023-06-10T02:57:17;12.55;;;9.40;;
24799;SDS011;12897;50.812;4.430;2023-06-10T02:59:44;11.33;;;9.18;;
24799;SDS011;12897;50.812;4.430;2023-06-10T03:02:12;14.07;;;9.55;;
24799;SDS011;12897;50.812;4.430;2023-06-10T03:04:40;15.18;;;9.95;;
24799;SDS011;12897;50.812;4.430;2023-06-10T03:07:09;15.80;;;10.15;;
24799;SDS011;12897;50.812;4.430;2023-06-10T03:09:36;12.50;;;9.95;;
24799;SDS011;12897;50.812;4.430;2023-06-10T03:12:04;15.90;;;9.85;;
24799;SDS011;12897;50.812;4.430;2023-06-10T03:14:32;12.93;;;10.43;;
24799;SDS011;12897;50.812;4.430;2023-06-10T03:17:00;13.80;;;10.25;;
24799;SDS011;12897;50.812;4.430;2023-06-10T03:19:36;13.13;;;10.00;;
24799;SDS011;12897;50.812;4.430;2023-06-10T03:22:13;13.68;;;9.23;;
24799;SDS011;12897;50.812;4.430;2023-06-10T03:24:41;13.65;;;9.53;;
24799;SDS011;12897;50.812;4.430;2023-06-10T03:27:09;14.53;;;10.30;;
24799;SDS011;12897;50.812;4.430;2023-06-10T03:29:42;15.48;;;10.30;;
24799;SDS011;12897;50.812;4.430;2023-06-10T03:32:13;16.10;;;9.58;;
24799;SDS011;12897;50.812;4.430;2023-06-10T03:37:21;15.73;;;9.83;;
24799;SDS011;12897;50.812;4.430;2023-06-10T03:39:49;12.03;;;10.00;;
24799;SDS011;12897;50.812;4.430;2023-06-10T03:42:16;18.50;;;10.88;;
24799;SDS011;12897;50.812;4.430;2023-06-10T03:44:44;12.58;;;10.00;;
24799;SDS011;12897;50.812;4.430;2023-06-10T03:47:12;15.50;;;11.15;;
24799;SDS011;12897;50.812;4.430;2023-06-10T03:49:39;14.68;;;10.10;;
24799;SDS011;12897;50.812;4.430;2023-06-10T03:52:07;13.90;;;10.15;;
24799;SDS011;12897;50.812;4.430;2023-06-10T03:54:35;12.63;;;10.08;;
24799;SDS011;12897;50.812;4.430;2023-06-10T03:57:02;15.30;;;10.35;;
24799;SDS011;12897;50.812;4.430;2023-06-10T03:59:31;16.73;;;10.17;;
24799;SDS011;12897;50.812;4.430;2023-06-10T04:02:00;12.35;;;9.73;;
24799;SDS011;12897;50.812;4.430;2023-06-10T04:04:27;13.53;;;10.88;;
24799;SDS011;12897;50.812;4.430;2023-06-10T04:06:55;13.28;;;10.70;;
24799;SDS011;12897;50.812;4.430;2023-06-10T04:09:23;18.85;;;11.22;;
24799;SDS011;12897;50.812;4.430;2023-06-10T04:11:51;15.43;;;11.18;;
24799;SDS011;12897;50.812;4.430;2023-06-10T04:14:18;11.57;;;9.43;;
24799;SDS011;12897;50.812;4.430;2023-06-10T04:16:46;20.23;;;11.73;;
24799;SDS011;12897;50.812;4.430;2023-06-10T04:19:17;15.63;;;10.23;;
24799;SDS011;12897;50.812;4.430;2023-06-10T04:21:44;15.72;;;10.80;;
24799;SDS011;12897;50.812;4.430;2023-06-10T04:24:12;14.18;;;10.20;;
24799;SDS011;12897;50.812;4.430;2023-06-10T04:26:39;20.65;;;10.15;;
24799;SDS011;12897;50.812;4.430;2023-06-10T04:29:07;17.10;;;10.08;;
24799;SDS011;12897;50.812;4.430;2023-06-10T04:31:34;15.13;;;9.75;;
24799;SDS011;12897;50.812;4.430;2023-06-10T04:39:56;12.93;;;10.70;;
24799;SDS011;12897;50.812;4.430;2023-06-10T04:42:10;12.90;;;9.85;;
24799;SDS011;12897;50.812;4.430;2023-06-10T04:44:37;16.05;;;9.75;;
24799;SDS011;12897;50.812;4.430;2023-06-10T04:47:06;15.58;;;9.80;;
24799;SDS011;12897;50.812;4.430;2023-06-10T04:49:34;20.52;;;10.13;;
24799;SDS011;12897;50.812;4.430;2023-06-10T04:52:02;18.60;;;9.73;;
24799;SDS011;12897;50.812;4.430;2023-06-10T04:54:30;16.07;;;10.48;;
24799;SDS011;12897;50.812;4.430;2023-06-10T04:56:58;15.65;;;10.38;;
24799;SDS011;12897;50.812;4.430;2023-06-10T04:59:26;14.33;;;9.80;;
24799;SDS011;12897;50.812;4.430;2023-06-10T05:01:53;19.27;;;11.57;;
24799;SDS011;12897;50.812;4.430;2023-06-10T05:04:21;15.90;;;11.05;;
24799;SDS011;12897;50.812;4.430;2023-06-10T05:06:50;14.45;;;9.85;;
24799;SDS011;12897;50.812;4.430;2023-06-10T05:09:18;18.73;;;9.85;;
24799;SDS011;12897;50.812;4.430;2023-06-10T05:11:46;19.65;;;10.50;;
24799;SDS011;12897;50.812;4.430;2023-06-10T05:14:14;13.60;;;10.48;;
24799;SDS011;12897;50.812;4.430;2023-06-10T05:16:42;18.77;;;9.58;;
24799;SDS011;12897;50.812;4.430;2023-06-10T05:19:10;18.52;;;10.32;;
24799;SDS011;12897;50.812;4.430;2023-06-10T05:21:38;13.45;;;9.03;;
24799;SDS011;12897;50.812;4.430;2023-06-10T05:24:05;14.70;;;10.32;;
24799;SDS011;12897;50.812;4.430;2023-06-10T05:26:33;13.43;;;9.25;;
24799;SDS011;12897;50.812;4.430;2023-06-10T05:29:06;14.55;;;8.68;;
24799;SDS011;12897;50.812;4.430;2023-06-10T05:31:36;16.75;;;9.15;;
24799;SDS011;12897;50.812;4.430;2023-06-10T05:34:03;13.05;;;9.18;;
24799;SDS011;12897;50.812;4.430;2023-06-10T05:36:31;14.13;;;8.18;;
24799;SDS011;12897;50.812;4.430;2023-06-10T05:39:00;13.60;;;8.83;;
24799;SDS011;12897;50.812;4.430;2023-06-10T05:41:27;15.68;;;8.98;;
24799;SDS011;12897;50.812;4.430;2023-06-10T05:43:58;11.73;;;8.60;;
24799;SDS011;12897;50.812;4.430;2023-06-10T05:46:25;13.78;;;9.58;;
24799;SDS011;12897;50.812;4.430;2023-06-10T05:48:53;17.62;;;8.68;;
24799;SDS011;12897;50.812;4.430;2023-06-10T05:51:21;12.28;;;9.18;;
24799;SDS011;12897;50.812;4.430;2023-06-10T05:53:48;12.85;;;9.08;;
24799;SDS011;12897;50.812;4.430;2023-06-10T05:56:16;12.70;;;8.83;;
24799;SDS011;12897;50.812;4.430;2023-06-10T05:58:43;10.43;;;8.48;;
24799;SDS011;12897;50.812;4.430;2023-06-10T06:01:14;13.93;;;9.18;;
24799;SDS011;12897;50.812;4.430;2023-06-10T06:03:41;12.68;;;8.78;;
24799;SDS011;12897;50.812;4.430;2023-06-10T06:06:09;12.10;;;9.03;;
24799;SDS011;12897;50.812;4.430;2023-06-10T06:08:37;12.10;;;8.55;;
24799;SDS011;12897;50.812;4.430;2023-06-10T06:11:07;13.80;;;9.83;;
24799;SDS011;12897;50.812;4.430;2023-06-10T06:13:35;15.53;;;9.20;;
24799;SDS011;12897;50.812;4.430;2023-06-10T06:16:03;13.32;;;8.53;;
24799;SDS011;12897;50.812;4.430;2023-06-10T06:18:30;11.15;;;7.92;;
24799;SDS011;12897;50.812;4.430;2023-06-10T06:23:45;12.13;;;8.20;;
24799;SDS011;12897;50.812;4.430;2023-06-10T06:26:13;12.25;;;8.15;;
24799;SDS011;12897;50.812;4.430;2023-06-10T06:28:42;11.28;;;8.53;;
24799;SDS011;12897;50.812;4.430;2023-06-10T06:31:09;11.33;;;8.58;;
24799;SDS011;12897;50.812;4.430;2023-06-10T06:36:06;11.50;;;8.45;;
24799;SDS011;12897;50.812;4.430;2023-06-10T06:38:34;11.60;;;8.70;;
24799;SDS011;12897;50.812;4.430;2023-06-10T06:41:02;14.15;;;8.30;;
24799;SDS011;12897;50.812;4.430;2023-06-10T06:43:31;12.63;;;8.50;;
24799;SDS011;12897;50.812;4.430;2023-06-10T06:46:00;11.08;;;8.33;;
24799;SDS011;12897;50.812;4.430;2023-06-10T06:48:28;13.35;;;8.28;;
24799;SDS011;12897;50.812;4.430;2023-06-10T06:50:57;14.45;;;8.48;;
24799;SDS011;12897;50.812;4.430;2023-06-10T06:53:24;17.30;;;8.38;;
24799;SDS011;12897;50.812;4.430;2023-06-10T06:55:52;14.98;;;8.83;;
24799;SDS011;12897;50.812;4.430;2023-06-10T06:58:19;14.03;;;7.92;;
24799;SDS011;12897;50.812;4.430;2023-06-10T07:00:47;11.38;;;8.05;;
24799;SDS011;12897;50.812;4.430;2023-06-10T07:03:15;12.70;;;8.35;;
24799;SDS011;12897;50.812;4.430;2023-06-10T07:05:42;15.53;;;8.45;;
24799;SDS011;12897;50.812;4.430;2023-06-10T07:08:12;17.40;;;7.92;;
24799;SDS011;12897;50.812;4.430;2023-06-10T07:10:45;10.53;;;8.18;;
24799;SDS011;12897;50.812;4.430;2023-06-10T07:15:50;14.25;;;8.43;;
24799;SDS011;12897;50.812;4.430;2023-06-10T07:20:44;10.58;;;7.83;;
24799;SDS011;12897;50.812;4.430;2023-06-10T07:23:12;9.68;;;7.45;;
24799;SDS011;12897;50.812;4.430;2023-06-10T07:25:40;12.73;;;8.20;;
24799;SDS011;12897;50.812;4.430;2023-06-10T07:28:09;11.25;;;7.75;;
24799;SDS011;12897;50.812;4.430;2023-06-10T07:30:37;11.37;;;7.53;;
24799;SDS011;12897;50.812;4.430;2023-06-10T07:33:05;13.15;;;7.72;;
24799;SDS011;12897;50.812;4.430;2023-06-10T07:35:34;10.20;;;7.83;;
24799;SDS011;12897;50.812;4.430;2023-06-10T07:38:02;12.90;;;7.72;;
24799;SDS011;12897;50.812;4.430;2023-06-10T07:40:30;10.93;;;7.58;;
24799;SDS011;12897;50.812;4.430;2023-06-10T07:42:57;11.65;;;7.25;;
24799;SDS011;12897;50.812;4.430;2023-06-10T07:45:25;11.33;;;6.58;;
24799;SDS011;12897;50.812;4.430;2023-06-10T07:47:53;9.53;;;7.28;;
24799;SDS011;12897;50.812;4.430;2023-06-10T07:50:23;12.25;;;8.10;;
24799;SDS011;12897;50.812;4.430;2023-06-10T07:52:50;11.85;;;7.83;;
24799;SDS011;12897;50.812;4.430;2023-06-10T07:55:18;10.78;;;7.58;;
24799;SDS011;12897;50.812;4.430;2023-06-10T07:57:46;10.30;;;7.65;;
24799;SDS011;12897;50.812;4.430;2023-06-10T08:00:13;9.88;;;7.12;;
24799;SDS011;12897;50.812;4.430;2023-06-10T08:02:47;11.48;;;7.42;;
24799;SDS011;12897;50.812;4.430;2023-06-10T08:05:22;13.05;;;7.33;;
24799;SDS011;12897;50.812;4.430;2023-06-10T08:07:50;13.68;;;6.95;;
24799;SDS011;12897;50.812;4.430;2023-06-10T08:10:18;11.40;;;6.97;;
24799;SDS011;12897;50.812;4.430;2023-06-10T08:12:49;11.63;;;7.42;;
24799;SDS011;12897;50.812;4.430;2023-06-10T08:15:22;13.38;;;7.20;;
24799;SDS011;12897;50.812;4.430;2023-06-10T08:17:47;14.15;;;8.30;;
24799;SDS011;12897;50.812;4.430;2023-06-10T08:20:14;11.88;;;7.22;;
24799;SDS011;12897;50.812;4.430;2023-06-10T08:22:42;14.40;;;7.53;;
24799;SDS011;12897;50.812;4.430;2023-06-10T08:25:10;10.48;;;7.35;;
24799;SDS011;12897;50.812;4.430;2023-06-10T08:27:38;11.35;;;6.80;;
24799;SDS011;12897;50.812;4.430;2023-06-10T08:30:06;13.03;;;7.23;;
24799;SDS011;12897;50.812;4.430;2023-06-10T08:32:36;11.93;;;7.55;;
24799;SDS011;12897;50.812;4.430;2023-06-10T08:35:07;12.68;;;7.53;;
24799;SDS011;12897;50.812;4.430;2023-06-10T08:37:41;11.57;;;7.17;;
24799;SDS011;12897;50.812;4.430;2023-06-10T08:40:08;11.10;;;6.80;;
24799;SDS011;12897;50.812;4.430;2023-06-10T08:45:08;13.53;;;7.10;;
24799;SDS011;12897;50.812;4.430;2023-06-10T08:47:39;12.35;;;7.22;;
24799;SDS011;12897;50.812;4.430;2023-06-10T08:50:09;10.68;;;7.30;;
24799;SDS011;12897;50.812;4.430;2023-06-10T08:52:37;12.30;;;6.83;;
24799;SDS011;12897;50.812;4.430;2023-06-10T08:55:12;10.43;;;7.20;;
24799;SDS011;12897;50.812;4.430;2023-06-10T08:57:49;12.53;;;6.83;;
24799;SDS011;12897;50.812;4.430;2023-06-10T09:00:19;8.98;;;6.95;;
24799;SDS011;12897;50.812;4.430;2023-06-10T09:02:46;11.57;;;7.55;;
24799;SDS011;12897;50.812;4.430;2023-06-10T09:05:19;11.43;;;6.67;;
24799;SDS011;12897;50.812;4.430;2023-06-10T09:07:46;9.65;;;6.40;;
24799;SDS011;12897;50.812;4.430;2023-06-10T09:10:16;11.45;;;6.78;;
24799;SDS011;12897;50.812;4.430;2023-06-10T09:12:44;17.67;;;7.12;;
24799;SDS011;12897;50.812;4.430;2023-06-10T09:15:11;9.83;;;6.92;;
24799;SDS011;12897;50.812;4.430;2023-06-10T09:17:41;15.98;;;6.97;;
24799;SDS011;12897;50.812;4.430;2023-06-10T09:20:09;12.60;;;7.20;;
24799;SDS011;12897;50.812;4.430;2023-06-10T09:22:37;10.23;;;6.58;;
24799;SDS011;12897;50.812;4.430;2023-06-10T09:25:07;12.10;;;6.35;;
24799;SDS011;12897;50.812;4.430;2023-06-10T09:27:44;13.88;;;6.67;;
24799;SDS011;12897;50.812;4.430;2023-06-10T09:30:26;6.70;;;6.00;;
24799;SDS011;12897;50.812;4.430;2023-06-10T09:32:56;9.68;;;6.28;;
24799;SDS011;12897;50.812;4.430;2023-06-10T09:37:52;10.03;;;6.87;;
24799;SDS011;12897;50.812;4.430;2023-06-10T09:40:22;12.88;;;6.90;;
24799;SDS011;12897;50.812;4.430;2023-06-10T09:42:54;12.05;;;6.55;;
24799;SDS011;12897;50.812;4.430;2023-06-10T09:45:22;9.70;;;5.97;;
24799;SDS011;12897;50.812;4.430;2023-06-10T09:47:54;14.93;;;6.65;;
24799;SDS011;12897;50.812;4.430;2023-06-10T09:50:24;11.90;;;6.50;;
24799;SDS011;12897;50.812;4.430;2023-06-10T09:52:53;12.75;;;5.78;;
24799;SDS011;12897;50.812;4.430;2023-06-10T09:55:21;8.37;;;6.20;;
24799;SDS011;12897;50.812;4.430;2023-06-10T09:57:53;11.00;;;6.05;;
24799;SDS011;12897;50.812;4.430;2023-06-10T10:00:22;9.63;;;6.08;;
24799;SDS011;12897;50.812;4.430;2023-06-10T10:02:52;7.62;;;5.78;;
24799;SDS011;12897;50.812;4.430;2023-06-10T10:05:21;9.80;;;5.78;;
24799;SDS011;12897;50.812;4.430;2023-06-10T10:07:49;11.33;;;6.33;;
24799;SDS011;12897;50.812;4.430;2023-06-10T10:10:21;10.55;;;6.10;;
24799;SDS011;12897;50.812;4.430;2023-06-10T10:12:47;7.30;;;5.70;;
24799;SDS011;12897;50.812;4.430;2023-06-10T10:15:19;10.38;;;5.42;;
24799;SDS011;12897;50.812;4.430;2023-06-10T10:18:00;12.05;;;6.67;;
24799;SDS011;12897;50.812;4.430;2023-06-10T10:20:33;6.97;;;5.60;;
24799;SDS011;12897;50.812;4.430;2023-06-10T10:23:03;9.20;;;6.42;;
24799;SDS011;12897;50.812;4.430;2023-06-10T10:28:56;9.18;;;5.72;;
24799;SDS011;12897;50.812;4.430;2023-06-10T10:32:21;7.33;;;5.58;;
24799;SDS011;12897;50.812;4.430;2023-06-10T10:34:43;8.43;;;5.65;;
24799;SDS011;12897;50.812;4.430;2023-06-10T10:37:42;11.57;;;6.55;;
24799;SDS011;12897;50.812;4.430;2023-06-10T10:40:38;10.10;;;6.22;;
24799;SDS011;12897;50.812;4.430;2023-06-10T10:42:51;8.05;;;6.22;;
24799;SDS011;12897;50.812;4.430;2023-06-10T10:45:28;10.25;;;6.58;;
24799;SDS011;12897;50.812;4.430;2023-06-10T10:54:44;9.70;;;5.75;;
24799;SDS011;12897;50.812;4.430;2023-06-10T10:57:16;11.60;;;5.97;;
24799;SDS011;12897;50.812;4.430;2023-06-10T10:59:58;9.55;;;5.80;;
24799;SDS011;12897;50.812;4.430;2023-06-10T11:02:47;12.13;;;5.55;;
24799;SDS011;12897;50.812;4.430;2023-06-10T11:05:53;12.85;;;5.40;;
24799;SDS011;12897;50.812;4.430;2023-06-10T11:11:32;9.40;;;5.10;;
24799;SDS011;12897;50.812;4.430;2023-06-10T11:14:12;9.43;;;5.85;;
24799;SDS011;12897;50.812;4.430;2023-06-10T11:16:58;6.78;;;5.37;;
24799;SDS011;12897;50.812;4.430;2023-06-10T11:19:43;8.85;;;5.75;;
24799;SDS011;12897;50.812;4.430;2023-06-10T11:22:43;8.90;;;6.00;;
24799;SDS011;12897;50.812;4.430;2023-06-10T11:31:52;11.08;;;5.28;;
24799;SDS011;12897;50.812;4.430;2023-06-10T11:34:09;7.40;;;6.12;;
24799;SDS011;12897;50.812;4.430;2023-06-10T11:39:34;11.05;;;6.05;;
24799;SDS011;12897;50.812;4.430;2023-06-10T11:47:36;10.98;;;5.37;;
24799;SDS011;12897;50.812;4.430;2023-06-10T11:50:13;8.13;;;6.62;;
24799;SDS011;12897;50.812;4.430;2023-06-10T11:52:41;9.13;;;5.25;;
24799;SDS011;12897;50.812;4.430;2023-06-10T11:55:09;9.35;;;5.70;;
24799;SDS011;12897;50.812;4.430;2023-06-10T11:57:36;10.13;;;6.12;;
24799;SDS011;12897;50.812;4.430;2023-06-10T12:00:06;12.45;;;5.97;;
24799;SDS011;12897;50.812;4.430;2023-06-10T12:02:34;9.07;;;6.00;;
24799;SDS011;12897;50.812;4.430;2023-06-10T12:05:12;11.75;;;6.70;;
24799;SDS011;12897;50.812;4.430;2023-06-10T12:07:40;8.70;;;6.00;;
24799;SDS011;12897;50.812;4.430;2023-06-10T12:10:07;9.85;;;5.85;;
24799;SDS011;12897;50.812;4.430;2023-06-10T12:12:43;8.20;;;5.65;;
24799;SDS011;12897;50.812;4.430;2023-06-10T12:15:22;14.43;;;6.00;;
24799;SDS011;12897;50.812;4.430;2023-06-10T12:17:49;11.80;;;6.03;;
24799;SDS011;12897;50.812;4.430;2023-06-10T12:20:26;8.73;;;5.70;;
24799;SDS011;12897;50.812;4.430;2023-06-10T12:22:56;9.53;;;6.00;;
24799;SDS011;12897;50.812;4.430;2023-06-10T12:25:30;8.58;;;5.83;;
24799;SDS011;12897;50.812;4.430;2023-06-10T12:27:59;14.20;;;6.00;;
24799;SDS011;12897;50.812;4.430;2023-06-10T12:30:26;8.38;;;6.22;;
24799;SDS011;12897;50.812;4.430;2023-06-10T12:32:56;9.98;;;6.70;;
24799;SDS011;12897;50.812;4.430;2023-06-10T12:35:26;8.78;;;5.90;;
24799;SDS011;12897;50.812;4.430;2023-06-10T12:37:56;9.90;;;6.28;;
24799;SDS011;12897;50.812;4.430;2023-06-10T12:40:37;14.13;;;6.65;;
24799;SDS011;12897;50.812;4.430;2023-06-10T12:43:07;11.05;;;6.05;;
24799;SDS011;12897;50.812;4.430;2023-06-10T12:48:16;9.40;;;6.62;;
24799;SDS011;12897;50.812;4.430;2023-06-10T12:50:55;8.63;;;5.67;;
24799;SDS011;12897;50.812;4.430;2023-06-10T12:53:27;14.45;;;6.40;;
24799;SDS011;12897;50.812;4.430;2023-06-10T12:55:55;12.50;;;6.28;;
24799;SDS011;12897;50.812;4.430;2023-06-10T12:58:25;7.70;;;6.67;;
24799;SDS011;12897;50.812;4.430;2023-06-10T13:00:53;11.37;;;6.20;;
24799;SDS011;12897;50.812;4.430;2023-06-10T13:03:20;9.25;;;6.40;;
24799;SDS011;12897;50.812;4.430;2023-06-10T13:05:48;14.70;;;6.60;;
24799;SDS011;12897;50.812;4.430;2023-06-10T13:08:17;9.75;;;6.50;;
24799;SDS011;12897;50.812;4.430;2023-06-10T13:10:46;12.37;;;6.60;;
24799;SDS011;12897;50.812;4.430;2023-06-10T13:13:14;6.95;;;6.25;;
24799;SDS011;12897;50.812;4.430;2023-06-10T13:15:42;10.98;;;6.62;;
24799;SDS011;12897;50.812;4.430;2023-06-10T13:18:09;9.73;;;7.10;;
24799;SDS011;12897;50.812;4.430;2023-06-10T13:20:38;15.23;;;7.00;;
24799;SDS011;12897;50.812;4.430;2023-06-10T13:23:06;11.85;;;6.50;;
24799;SDS011;12897;50.812;4.430;2023-06-10T13:25:36;7.40;;;5.85;;
24799;SDS011;12897;50.812;4.430;2023-06-10T13:28:06;16.73;;;7.17;;
24799;SDS011;12897;50.812;4.430;2023-06-10T13:30:38;11.77;;;5.97;;
24799;SDS011;12897;50.812;4.430;2023-06-10T13:33:06;7.80;;;6.22;;
24799;SDS011;12897;50.812;4.430;2023-06-10T13:35:33;11.45;;;6.40;;
24799;SDS011;12897;50.812;4.430;2023-06-10T13:38:01;15.05;;;6.40;;
24799;SDS011;12897;50.812;4.430;2023-06-10T13:40:29;8.73;;;5.90;;
24799;SDS011;12897;50.812;4.430;2023-06-10T13:42:56;8.58;;;5.78;;
24799;SDS011;12897;50.812;4.430;2023-06-10T13:45:27;9.30;;;5.97;;
24799;SDS011;12897;50.812;4.430;2023-06-10T13:47:56;9.08;;;6.42;;
24799;SDS011;12897;50.812;4.430;2023-06-10T13:50:29;16.42;;;6.55;;
24799;SDS011;12897;50.812;4.430;2023-06-10T13:52:54;7.50;;;5.95;;
24799;SDS011;12897;50.812;4.430;2023-06-10T13:55:22;12.28;;;5.60;;
24799;SDS011;12897;50.812;4.430;2023-06-10T13:57:51;13.28;;;5.85;;
24799;SDS011;12897;50.812;4.430;2023-06-10T14:00:19;14.18;;;5.90;;
24799;SDS011;12897;50.812;4.430;2023-06-10T14:02:47;9.15;;;5.83;;
24799;SDS011;12897;50.812;4.430;2023-06-10T14:05:16;12.07;;;6.80;;
24799;SDS011;12897;50.812;4.430;2023-06-10T14:07:44;11.07;;;6.50;;
24799;SDS011;12897;50.812;4.430;2023-06-10T14:10:12;12.05;;;6.58;;
24799;SDS011;12897;50.812;4.430;2023-06-10T14:12:40;9.77;;;5.83;;
24799;SDS011;12897;50.812;4.430;2023-06-10T14:15:14;12.25;;;6.67;;
24799;SDS011;12897;50.812;4.430;2023-06-10T14:17:40;8.00;;;6.20;;
24799;SDS011;12897;50.812;4.430;2023-06-10T14:20:09;10.10;;;6.22;;
24799;SDS011;12897;50.812;4.430;2023-06-10T14:22:39;10.35;;;6.00;;
24799;SDS011;12897;50.812;4.430;2023-06-10T14:25:07;11.18;;;6.35;;
24799;SDS011;12897;50.812;4.430;2023-06-10T14:27:38;9.63;;;6.45;;
24799;SDS011;12897;50.812;4.430;2023-06-10T14:30:06;7.60;;;5.90;;
24799;SDS011;12897;50.812;4.430;2023-06-10T14:32:34;9.70;;;6.40;;
24799;SDS011;12897;50.812;4.430;2023-06-10T14:35:02;22.52;;;7.35;;
24799;SDS011;12897;50.812;4.430;2023-06-10T14:37:31;12.73;;;6.45;;
24799;SDS011;12897;50.812;4.430;2023-06-10T14:39:58;7.75;;;6.65;;
24799;SDS011;12897;50.812;4.430;2023-06-10T14:42:26;8.83;;;6.45;;
24799;SDS011;12897;50.812;4.430;2023-06-10T14:44:56;8.55;;;5.87;;
24799;SDS011;12897;50.812;4.430;2023-06-10T14:47:25;8.05;;;6.28;;
24799;SDS011;12897;50.812;4.430;2023-06-10T14:49:52;11.83;;;6.25;;
24799;SDS011;12897;50.812;4.430;2023-06-10T14:52:19;12.60;;;6.60;;
24799;SDS011;12897;50.812;4.430;2023-06-10T14:54:47;11.73;;;6.22;;
24799;SDS011;12897;50.812;4.430;2023-06-10T14:57:15;11.35;;;5.95;;
24799;SDS011;12897;50.812;4.430;2023-06-10T15:02:12;10.93;;;5.80;;
24799;SDS011;12897;50.812;4.430;2023-06-10T15:04:39;8.53;;;6.37;;
24799;SDS011;12897;50.812;4.430;2023-06-10T15:07:08;10.75;;;6.65;;
24799;SDS011;12897;50.812;4.430;2023-06-10T15:09:35;11.07;;;6.37;;
24799;SDS011;12897;50.812;4.430;2023-06-10T15:14:51;10.85;;;6.58;;
24799;SDS011;12897;50.812;4.430;2023-06-10T15:17:20;10.35;;;6.30;;
24799;SDS011;12897;50.812;4.430;2023-06-10T15:19:47;11.45;;;6.00;;
24799;SDS011;12897;50.812;4.430;2023-06-10T15:22:15;10.08;;;5.92;;
24799;SDS011;12897;50.812;4.430;2023-06-10T15:24:44;7.75;;;5.40;;
24799;SDS011;12897;50.812;4.430;2023-06-10T15:27:12;18.70;;;6.60;;
24799;SDS011;12897;50.812;4.430;2023-06-10T15:29:40;9.60;;;6.22;;
24799;SDS011;12897;50.812;4.430;2023-06-10T15:32:08;11.30;;;6.22;;
24799;SDS011;12897;50.812;4.430;2023-06-10T15:34:38;11.93;;;6.42;;
24799;SDS011;12897;50.812;4.430;2023-06-10T15:39:53;10.75;;;6.33;;
24799;SDS011;12897;50.812;4.430;2023-06-10T15:42:21;8.20;;;6.10;;
24799;SDS011;12897;50.812;4.430;2023-06-10T15:44:49;9.50;;;6.00;;
24799;SDS011;12897;50.812;4.430;2023-06-10T15:50:08;9.28;;;5.92;;
24799;SDS011;12897;50.812;4.430;2023-06-10T15:52:36;10.40;;;6.15;;
24799;SDS011;12897;50.812;4.430;2023-06-10T15:55:14;11.93;;;6.10;;
24799;SDS011;12897;50.812;4.430;2023-06-10T15:57:37;13.70;;;6.20;;
24799;SDS011;12897;50.812;4.430;2023-06-10T16:00:06;14.10;;;6.10;;
24799;SDS011;12897;50.812;4.430;2023-06-10T16:02:34;11.28;;;6.10;;
24799;SDS011;12897;50.812;4.430;2023-06-10T16:05:01;10.82;;;6.40;;
24799;SDS011;12897;50.812;4.430;2023-06-10T16:07:30;7.22;;;6.03;;
24799;SDS011;12897;50.812;4.430;2023-06-10T16:09:59;7.83;;;6.03;;